createdAt,value
2018-06-01T00:00:33.095Z,0
2018-06-01T00:01:32.014Z,0
2018-06-01T00:02:32.070Z,0
2018-06-01T00:03:32.036Z,0
2018-06-01T00:04:32.058Z,0
2018-06-01T00:05:32.638Z,0
2018-06-01T00:06:32.016Z,0
2018-06-01T00:07:32.016Z,0
2018-06-01T00:08:33.865Z,0
2018-06-01T00:09:32.102Z,0
2018-06-01T00:10:32.083Z,0
2018-06-01T00:11:32.028Z,0
2018-06-01T00:12:31.992Z,0
2018-06-01T00:13:32.106Z,0
2018-06-01T00:14:32.028Z,0
2018-06-01T00:15:32.029Z,0
2018-06-01T00:16:31.998Z,0
2018-06-01T00:17:32.037Z,0
2018-06-01T00:18:31.986Z,0
2018-06-01T00:19:32.034Z,0
2018-06-01T00:20:32.086Z,0
2018-06-01T00:21:31.991Z,0
2018-06-01T00:22:32.008Z,0
2018-06-01T00:27:49.766Z,0
2018-06-01T00:28:00.907Z,0
2018-06-01T00:29:00.878Z,0
2018-06-01T00:30:00.852Z,0
2018-06-01T00:31:00.901Z,0
2018-06-01T00:32:00.875Z,0
2018-06-01T00:33:01.045Z,0
2018-06-01T00:34:00.834Z,0
2018-06-01T00:35:00.864Z,0
2018-06-01T00:36:00.871Z,0
2018-06-01T00:37:00.925Z,0
2018-06-01T00:38:00.930Z,0
2018-06-01T00:39:00.869Z,0
2018-06-01T00:40:00.894Z,0
2018-06-01T00:41:00.840Z,0
2018-06-01T00:42:00.833Z,0
2018-06-01T00:43:00.936Z,0
2018-06-01T00:44:00.962Z,0
2018-06-01T00:45:00.947Z,0
2018-06-01T00:46:00.897Z,0
2018-06-01T00:47:00.870Z,0
2018-06-01T00:48:01.012Z,0
2018-06-01T00:49:00.938Z,0
2018-06-01T00:50:00.964Z,0
2018-06-01T00:51:01.011Z,0
2018-06-01T00:54:08.176Z,0
2018-06-01T00:54:19.320Z,0
2018-06-01T00:55:19.284Z,0
2018-06-01T00:56:19.251Z,0
2018-06-01T00:57:19.263Z,0
2018-06-01T00:58:19.264Z,0
2018-06-01T00:59:19.267Z,0
2018-06-01T01:00:19.292Z,0
2018-06-01T01:01:19.344Z,0
2018-06-01T01:02:19.292Z,0
2018-06-01T01:03:19.275Z,0
2018-06-01T01:04:19.206Z,0
2018-06-01T01:05:19.269Z,0
2018-06-01T01:06:19.380Z,0
2018-06-01T01:07:19.225Z,0
2018-06-01T01:08:19.284Z,0
2018-06-01T01:09:19.291Z,0
2018-06-01T01:10:19.233Z,0
2018-06-01T01:11:19.244Z,0
2018-06-01T01:12:19.259Z,0
2018-06-01T01:13:19.323Z,0
2018-06-01T01:14:19.244Z,0
2018-06-01T01:15:19.275Z,0
2018-06-01T01:16:19.279Z,0
2018-06-01T01:17:19.266Z,0
2018-06-01T01:18:19.313Z,0
2018-06-01T01:19:19.297Z,0
2018-06-01T01:20:19.282Z,0
2018-06-01T01:21:19.306Z,0
2018-06-01T01:22:19.233Z,0
2018-06-01T01:23:19.320Z,0
2018-06-01T01:24:19.307Z,0
2018-06-01T01:25:19.320Z,0
2018-06-01T01:26:19.326Z,0
2018-06-01T01:27:19.285Z,0
2018-06-01T01:28:19.336Z,0
2018-06-01T01:29:19.286Z,0
2018-06-01T01:30:19.411Z,0
2018-06-01T01:31:19.295Z,0
2018-06-01T01:32:19.301Z,0
2018-06-01T01:33:19.336Z,0
2018-06-01T01:34:19.253Z,0
2018-06-01T01:35:19.305Z,0
2018-06-01T01:36:19.280Z,0
2018-06-01T01:37:19.306Z,0
2018-06-01T01:38:19.297Z,0
2018-06-01T01:39:19.300Z,0
2018-06-01T01:40:19.359Z,0
2018-06-01T01:41:20.772Z,0
2018-06-01T01:42:19.364Z,0
2018-06-01T01:43:19.252Z,0
2018-06-01T01:44:19.441Z,0
2018-06-01T01:45:19.261Z,0
2018-06-01T01:46:19.318Z,0
2018-06-01T01:47:19.300Z,0
2018-06-01T01:48:54.154Z,0
2018-06-01T01:49:19.303Z,0
2018-06-01T01:50:19.276Z,0
2018-06-01T01:51:19.287Z,0
2018-06-01T01:52:19.288Z,0
2018-06-01T01:53:19.337Z,0
2018-06-01T01:54:19.315Z,0
2018-06-01T01:55:19.381Z,0
2018-06-01T01:56:19.278Z,0
2018-06-01T01:57:19.323Z,0
2018-06-01T01:58:19.405Z,0
2018-06-01T01:59:19.330Z,0
2018-06-01T02:00:19.343Z,0
2018-06-01T02:01:19.320Z,0
2018-06-01T02:02:19.315Z,0
2018-06-01T02:03:21.364Z,0
2018-06-01T02:04:19.387Z,0
2018-06-01T02:05:19.428Z,0
2018-06-01T02:06:19.445Z,0
2018-06-01T02:07:20.634Z,0
2018-06-01T02:08:19.422Z,0
2018-06-01T02:09:19.459Z,0
2018-06-01T02:10:19.431Z,0
2018-06-01T02:11:19.437Z,0
2018-06-01T02:12:20.394Z,0
2018-06-01T02:13:19.427Z,0
2018-06-01T02:14:20.084Z,0
2018-06-01T02:15:19.352Z,0
2018-06-01T02:16:20.590Z,0
2018-06-01T02:17:19.388Z,0
2018-06-01T02:18:19.415Z,0
2018-06-01T02:19:19.460Z,0
2018-06-01T02:20:19.575Z,0
2018-06-01T02:21:21.643Z,0
2018-06-01T02:22:19.934Z,0
2018-06-01T02:23:19.394Z,0
2018-06-01T02:24:19.391Z,0
2018-06-01T02:25:19.478Z,0
2018-06-01T02:26:19.466Z,0
2018-06-01T02:27:19.408Z,0
2018-06-01T02:28:19.404Z,0
2018-06-01T02:29:19.348Z,0
2018-06-01T02:30:19.373Z,0
2018-06-01T02:31:20.343Z,0
2018-06-01T02:32:19.427Z,0
2018-06-01T02:33:19.370Z,0
2018-06-01T02:34:19.432Z,0
2018-06-01T02:35:19.469Z,0
2018-06-01T02:36:19.437Z,0
2018-06-01T02:37:19.419Z,0
2018-06-01T02:38:19.361Z,0
2018-06-01T02:39:19.446Z,0
2018-06-01T02:40:19.439Z,0
2018-06-01T02:41:19.383Z,0
2018-06-01T02:42:19.381Z,0
2018-06-01T02:43:19.396Z,0
2018-06-01T02:44:19.441Z,0
2018-06-01T02:45:19.480Z,0
2018-06-01T02:46:19.470Z,0
2018-06-01T02:47:19.372Z,0
2018-06-01T02:48:19.384Z,0
2018-06-01T02:49:19.499Z,0
2018-06-01T02:50:19.413Z,0
2018-06-01T02:51:19.536Z,0
2018-06-01T02:52:19.392Z,0
2018-06-01T02:53:19.403Z,0
2018-06-01T02:54:19.528Z,0
2018-06-01T02:55:19.492Z,0
2018-06-01T02:56:19.432Z,0
2018-06-01T02:57:19.466Z,0
2018-06-01T02:58:19.412Z,0
2018-06-01T02:59:19.413Z,0
2018-06-01T03:00:19.406Z,0
2018-06-01T03:01:19.427Z,0
2018-06-01T03:02:19.413Z,0
2018-06-01T03:03:19.464Z,0
2018-06-01T03:04:19.494Z,0
2018-06-01T03:05:27.093Z,0
2018-06-01T03:06:23.505Z,0
2018-06-01T03:07:19.671Z,0
2018-06-01T03:08:19.524Z,0
2018-06-01T03:09:19.547Z,0
2018-06-01T03:10:19.445Z,0
2018-06-01T03:11:19.414Z,0
2018-06-01T03:12:19.445Z,0
2018-06-01T03:13:19.466Z,0
2018-06-01T03:14:19.447Z,0
2018-06-01T03:15:19.459Z,0
2018-06-01T03:16:19.420Z,0
2018-06-01T03:17:19.490Z,0
2018-06-01T03:18:19.481Z,0
2018-06-01T03:19:19.530Z,0
2018-06-01T03:20:19.456Z,0
2018-06-01T03:21:19.522Z,0
2018-06-01T03:22:19.459Z,0
2018-06-01T03:23:19.488Z,0
2018-06-01T03:24:19.482Z,0
2018-06-01T03:25:19.689Z,0
2018-06-01T03:26:19.614Z,0
2018-06-01T03:27:19.491Z,0
2018-06-01T03:28:19.524Z,0
2018-06-01T03:29:19.510Z,0
2018-06-01T03:30:19.558Z,0
2018-06-01T03:31:19.562Z,0
2018-06-01T03:32:19.514Z,0
2018-06-01T03:33:19.510Z,0
2018-06-01T03:34:19.488Z,0
2018-06-01T03:35:19.516Z,0
2018-06-01T03:36:19.512Z,0
2018-06-01T03:37:20.222Z,0
2018-06-01T03:38:19.526Z,0
2018-06-01T03:39:19.571Z,0
2018-06-01T03:40:19.577Z,0
2018-06-01T03:41:19.563Z,0
2018-06-01T03:42:19.551Z,0
2018-06-01T03:43:19.550Z,0
2018-06-01T03:44:19.573Z,0
2018-06-01T03:45:19.616Z,0
2018-06-01T03:46:19.523Z,0
2018-06-01T03:47:19.501Z,0
2018-06-01T03:48:19.569Z,0
2018-06-01T03:49:19.534Z,0
2018-06-01T03:50:19.629Z,0
2018-06-01T03:51:19.658Z,0
2018-06-01T03:52:19.608Z,0
2018-06-01T03:53:19.557Z,0
2018-06-01T03:54:19.589Z,0
2018-06-01T03:55:19.614Z,0
2018-06-01T03:56:19.630Z,0
2018-06-01T03:57:19.551Z,0
2018-06-01T03:58:19.574Z,0
2018-06-01T03:59:19.566Z,0
2018-06-01T04:00:19.670Z,0
2018-06-01T04:01:19.614Z,0
2018-06-01T04:02:19.609Z,0
2018-06-01T04:03:19.608Z,0
2018-06-01T04:04:20.114Z,0
2018-06-01T04:05:19.564Z,0
2018-06-01T04:06:19.512Z,0
2018-06-01T04:11:37.170Z,0
2018-06-01T04:11:48.296Z,0
2018-06-01T04:12:48.275Z,0
2018-06-01T04:13:48.248Z,0
2018-06-01T04:14:48.196Z,0
2018-06-01T04:15:48.252Z,0
2018-06-01T04:16:48.233Z,0
2018-06-01T04:17:48.233Z,0
2018-06-01T04:18:48.231Z,0
2018-06-01T04:19:48.260Z,0
2018-06-01T04:20:50.251Z,0
2018-06-01T04:21:48.252Z,0
2018-06-01T04:22:48.369Z,0
2018-06-01T04:23:48.267Z,0
2018-06-01T04:24:48.273Z,0
2018-06-01T04:25:48.284Z,0
2018-06-01T04:26:48.370Z,0
2018-06-01T04:27:48.416Z,0
2018-06-01T04:28:48.261Z,0
2018-06-01T04:29:48.243Z,0
2018-06-01T04:30:48.230Z,0
2018-06-01T04:31:48.244Z,0
2018-06-01T04:32:48.285Z,0
2018-06-01T04:33:48.330Z,0
2018-06-01T04:34:48.293Z,0
2018-06-01T04:35:48.306Z,0
2018-06-01T04:36:48.480Z,0
2018-06-01T04:37:48.341Z,0
2018-06-01T04:38:48.360Z,0
2018-06-01T04:39:48.270Z,0
2018-06-01T04:40:48.322Z,0
2018-06-01T04:41:48.284Z,0
2018-06-01T04:42:48.258Z,0
2018-06-01T04:43:48.294Z,0
2018-06-01T04:44:48.261Z,0
2018-06-01T04:45:48.294Z,0
2018-06-01T04:46:48.356Z,0
2018-06-01T04:47:48.380Z,0
2018-06-01T04:48:48.385Z,0
2018-06-01T04:49:48.372Z,0
2018-06-01T04:50:48.300Z,0
2018-06-01T04:51:48.374Z,0
2018-06-01T04:52:48.326Z,0
2018-06-01T04:53:48.360Z,0
2018-06-01T04:54:48.366Z,0
2018-06-01T04:55:48.338Z,0
2018-06-01T04:56:48.480Z,0
2018-06-01T04:57:48.414Z,0
2018-06-01T04:58:48.990Z,0
2018-06-01T04:59:48.442Z,0
2018-06-01T05:00:49.209Z,0
2018-06-01T05:01:48.451Z,0
2018-06-01T05:02:48.341Z,0
2018-06-01T05:03:48.451Z,0
2018-06-01T05:04:48.422Z,0
2018-06-01T05:05:48.462Z,0
2018-06-01T05:06:48.350Z,0
2018-06-01T05:07:48.410Z,0
2018-06-01T05:08:48.404Z,0
2018-06-01T05:11:07.072Z,0
2018-06-01T05:12:07.070Z,0
2018-06-01T05:13:06.980Z,0
2018-06-01T05:14:07.031Z,0
2018-06-01T05:15:08.505Z,0
2018-06-01T05:16:07.003Z,0
2018-06-01T05:17:07.025Z,0
2018-06-01T05:18:07.055Z,0
2018-06-01T05:19:07.051Z,0
2018-06-01T05:20:07.134Z,0
2018-06-01T05:21:07.031Z,0
2018-06-01T05:22:07.167Z,0
2018-06-01T05:23:07.064Z,0
2018-06-01T05:24:07.076Z,0
2018-06-01T05:25:07.159Z,0
2018-06-01T05:30:25.252Z,0
2018-06-01T05:30:36.396Z,0
2018-06-01T05:31:36.441Z,0
2018-06-01T05:32:36.388Z,0
2018-06-01T05:33:36.437Z,0
2018-06-01T05:34:36.374Z,0
2018-06-01T05:35:37.195Z,0
2018-06-01T05:36:36.520Z,0
2018-06-01T05:37:36.445Z,0
2018-06-01T05:38:37.052Z,0
2018-06-01T05:39:36.500Z,0
2018-06-01T05:40:36.461Z,0
2018-06-01T05:41:36.363Z,0
2018-06-01T05:42:36.425Z,0
2018-06-01T05:43:36.444Z,0
2018-06-01T05:44:36.327Z,0
2018-06-01T05:45:36.476Z,0
2018-06-01T05:46:36.350Z,0
2018-06-01T05:47:36.388Z,0
2018-06-01T05:48:36.416Z,0
2018-06-01T05:49:36.441Z,0
2018-06-01T05:50:36.408Z,0
2018-06-01T05:51:36.489Z,0
2018-06-01T05:52:36.488Z,0
2018-06-01T05:53:36.469Z,0
2018-06-01T05:54:36.526Z,0
2018-06-01T05:55:36.465Z,0
2018-06-01T05:56:36.366Z,0
2018-06-01T05:57:36.443Z,0
2018-06-01T05:58:36.460Z,32
2018-06-01T05:59:37.173Z,32
2018-06-01T06:00:36.442Z,32
2018-06-01T06:01:36.483Z,32
2018-06-01T06:02:36.512Z,32
2018-06-01T06:03:36.660Z,36
2018-06-01T06:04:36.670Z,36
2018-06-01T06:05:36.555Z,36
2018-06-01T06:06:37.634Z,36
2018-06-01T06:07:36.820Z,36
2018-06-01T06:08:36.420Z,36
2018-06-01T06:09:36.848Z,36
2018-06-01T06:10:36.398Z,36
2018-06-01T06:11:36.432Z,36
2018-06-01T06:12:36.350Z,40
2018-06-01T06:13:36.541Z,40
2018-06-01T06:14:36.400Z,44
2018-06-01T06:15:36.401Z,44
2018-06-01T06:16:36.429Z,48
2018-06-01T06:17:36.472Z,44
2018-06-01T06:18:36.430Z,52
2018-06-01T06:19:36.403Z,52
2018-06-01T06:20:36.475Z,56
2018-06-01T06:21:36.443Z,60
2018-06-01T06:22:36.400Z,60
2018-06-01T06:27:54.046Z,64
2018-06-01T06:28:05.754Z,64
2018-06-01T06:29:05.114Z,60
2018-06-01T06:30:05.227Z,60
2018-06-01T06:31:05.163Z,60
2018-06-01T06:32:05.095Z,64
2018-06-01T06:33:05.188Z,60
2018-06-01T06:34:05.154Z,60
2018-06-01T06:35:05.158Z,56
2018-06-01T06:40:22.476Z,56
2018-06-01T06:40:33.535Z,56
2018-06-01T06:41:33.526Z,52
2018-06-01T06:42:33.529Z,56
2018-06-01T06:43:33.577Z,56
2018-06-01T06:44:33.567Z,68
2018-06-01T06:45:33.561Z,56
2018-06-01T06:46:33.485Z,56
2018-06-01T06:47:33.491Z,68
2018-06-01T06:48:33.537Z,76
2018-06-01T06:49:33.512Z,76
2018-06-01T06:50:33.525Z,92
2018-06-01T06:51:33.505Z,136
2018-06-01T06:52:33.589Z,124
2018-06-01T06:53:33.553Z,104
2018-06-01T06:54:33.514Z,96
2018-06-01T06:55:33.555Z,84
2018-06-01T06:56:34.244Z,80
2018-06-01T06:57:33.564Z,108
2018-06-01T06:58:33.552Z,84
2018-06-01T06:59:33.552Z,80
2018-06-01T07:00:33.580Z,80
2018-06-01T07:01:33.585Z,92
2018-06-01T07:02:33.540Z,76
2018-06-01T07:03:33.594Z,72
2018-06-01T07:04:33.566Z,68
2018-06-01T07:05:33.567Z,64
2018-06-01T07:06:33.534Z,68
2018-06-01T07:07:33.561Z,76
2018-06-01T07:08:33.650Z,60
2018-06-01T07:09:33.532Z,60
2018-06-01T07:10:33.694Z,68
2018-06-01T07:11:33.588Z,64
2018-06-01T07:12:33.657Z,92
2018-06-01T07:13:33.607Z,92
2018-06-01T07:14:33.630Z,92
2018-06-01T07:15:33.603Z,92
2018-06-01T07:16:33.687Z,96
2018-06-01T07:17:33.617Z,96
2018-06-01T07:18:33.696Z,96
2018-06-01T07:19:33.648Z,100
2018-06-01T07:20:33.743Z,100
2018-06-01T07:21:33.634Z,72
2018-06-01T07:22:33.749Z,64
2018-06-01T07:23:33.642Z,88
2018-06-01T07:24:33.639Z,88
2018-06-01T07:25:33.606Z,88
2018-06-01T07:26:33.628Z,92
2018-06-01T07:27:33.602Z,88
2018-06-01T07:28:33.696Z,92
2018-06-01T07:29:33.608Z,84
2018-06-01T07:30:33.598Z,100
2018-06-01T07:31:33.776Z,72
2018-06-01T07:32:33.639Z,76
2018-06-01T07:33:33.626Z,88
2018-06-01T07:34:33.577Z,88
2018-06-01T07:35:33.625Z,88
2018-06-01T07:36:33.608Z,88
2018-06-01T07:37:33.617Z,92
2018-06-01T07:38:33.688Z,80
2018-06-01T07:39:33.691Z,84
2018-06-01T07:40:33.652Z,88
2018-06-01T07:41:33.637Z,88
2018-06-01T07:42:33.697Z,88
2018-06-01T07:43:33.727Z,84
2018-06-01T07:44:33.638Z,92
2018-06-01T07:45:33.665Z,84
2018-06-01T07:46:33.651Z,72
2018-06-01T07:47:33.696Z,72
2018-06-01T07:48:33.714Z,80
2018-06-01T07:49:33.640Z,84
2018-06-01T07:50:33.642Z,80
2018-06-01T07:51:33.646Z,80
2018-06-01T07:52:33.619Z,80
2018-06-01T07:53:33.618Z,80
2018-06-01T07:54:33.747Z,84
2018-06-01T07:55:33.728Z,92
2018-06-01T07:56:33.720Z,96
2018-06-01T07:57:33.730Z,100
2018-06-01T07:58:33.815Z,104
2018-06-01T07:59:33.739Z,100
2018-06-01T08:00:33.711Z,96
2018-06-01T08:01:33.783Z,96
2018-06-01T08:02:33.757Z,96
2018-06-01T08:03:33.912Z,100
2018-06-01T08:04:33.690Z,100
2018-06-01T08:05:33.680Z,100
2018-06-01T08:06:33.783Z,96
2018-06-01T08:07:33.707Z,92
2018-06-01T08:08:34.224Z,96
2018-06-01T08:09:33.721Z,96
2018-06-01T08:10:33.621Z,100
2018-06-01T08:11:33.689Z,104
2018-06-01T08:12:33.720Z,108
2018-06-01T08:13:33.702Z,116
2018-06-01T08:14:33.668Z,124
2018-06-01T08:15:33.716Z,124
2018-06-01T08:16:33.647Z,116
2018-06-01T08:17:33.668Z,120
2018-06-01T08:18:33.776Z,116
2018-06-01T08:19:33.628Z,124
2018-06-01T08:20:33.864Z,108
2018-06-01T08:21:33.719Z,108
2018-06-01T08:22:33.720Z,108
2018-06-01T08:23:33.688Z,116
2018-06-01T08:24:33.740Z,124
2018-06-01T08:25:33.678Z,112
2018-06-01T08:26:33.768Z,116
2018-06-01T08:27:33.706Z,136
2018-06-01T08:28:33.699Z,132
2018-06-01T08:29:33.679Z,136
2018-06-01T08:30:33.860Z,148
2018-06-01T08:31:33.717Z,136
2018-06-01T08:32:33.779Z,120
2018-06-01T08:33:33.743Z,120
2018-06-01T08:34:34.234Z,112
2018-06-01T08:35:33.718Z,104
2018-06-01T08:36:33.709Z,96
2018-06-01T08:37:33.760Z,88
2018-06-01T08:38:33.766Z,84
2018-06-01T08:39:33.836Z,84
2018-06-01T08:40:33.707Z,80
2018-06-01T08:41:33.684Z,80
2018-06-01T08:42:33.729Z,80
2018-06-01T08:43:33.742Z,80
2018-06-01T08:44:33.829Z,76
2018-06-01T08:45:33.750Z,72
2018-06-01T08:46:33.977Z,72
2018-06-01T08:47:33.786Z,68
2018-06-01T08:48:33.830Z,68
2018-06-01T08:49:33.797Z,64
2018-06-01T08:50:33.751Z,64
2018-06-01T08:51:34.507Z,64
2018-06-01T08:52:34.044Z,68
2018-06-01T08:53:33.904Z,72
2018-06-01T08:54:33.750Z,80
2018-06-01T08:55:34.081Z,84
2018-06-01T08:56:33.759Z,92
2018-06-01T08:57:34.487Z,88
2018-06-01T08:58:33.819Z,84
2018-06-01T08:59:33.870Z,84
2018-06-01T09:00:33.733Z,84
2018-06-01T09:01:33.752Z,84
2018-06-01T09:02:33.782Z,84
2018-06-01T09:03:33.831Z,112
2018-06-01T09:04:33.847Z,140
2018-06-01T09:05:33.798Z,128
2018-06-01T09:06:33.787Z,104
2018-06-01T09:07:33.796Z,108
2018-06-01T09:08:33.859Z,108
2018-06-01T09:09:33.745Z,100
2018-06-01T09:10:33.791Z,104
2018-06-01T09:11:33.722Z,104
2018-06-01T09:12:33.781Z,104
2018-06-01T09:13:34.943Z,100
2018-06-01T09:14:33.940Z,96
2018-06-01T09:15:33.907Z,96
2018-06-01T09:16:33.930Z,104
2018-06-01T09:17:33.921Z,152
2018-06-01T09:18:33.884Z,164
2018-06-01T09:19:33.973Z,148
2018-06-01T09:20:33.963Z,136
2018-06-01T09:21:33.927Z,120
2018-06-01T09:22:33.988Z,112
2018-06-01T09:23:33.925Z,104
2018-06-01T09:24:33.921Z,108
2018-06-01T09:25:34.235Z,152
2018-06-01T09:26:34.053Z,156
2018-06-01T09:27:33.965Z,152
2018-06-01T09:28:34.072Z,116
2018-06-01T09:29:34.107Z,112
2018-06-01T09:30:33.985Z,108
2018-06-01T09:31:34.070Z,112
2018-06-01T09:32:33.961Z,108
2018-06-01T09:33:34.134Z,152
2018-06-01T09:34:34.117Z,116
2018-06-01T09:35:33.934Z,100
2018-06-01T09:36:34.084Z,96
2018-06-01T09:37:34.028Z,92
2018-06-01T09:38:34.002Z,92
2018-06-01T09:39:34.059Z,92
2018-06-01T09:40:34.053Z,92
2018-06-01T09:41:34.033Z,88
2018-06-01T09:42:33.960Z,140
2018-06-01T09:43:34.010Z,144
2018-06-01T09:44:34.002Z,148
2018-06-01T09:45:33.977Z,144
2018-06-01T09:46:34.103Z,104
2018-06-01T09:47:33.989Z,144
2018-06-01T09:48:34.026Z,164
2018-06-01T09:49:34.032Z,164
2018-06-01T09:50:33.991Z,156
2018-06-01T09:51:34.076Z,152
2018-06-01T09:52:34.048Z,104
2018-06-01T09:53:34.060Z,116
2018-06-01T09:54:34.068Z,104
2018-06-01T09:55:34.247Z,140
2018-06-01T09:56:34.057Z,140
2018-06-01T09:57:33.978Z,132
2018-06-01T09:58:34.069Z,112
2018-06-01T09:59:34.134Z,116
2018-06-01T10:00:34.018Z,148
2018-06-01T10:01:33.992Z,116
2018-06-01T10:02:34.046Z,112
2018-06-01T10:03:33.992Z,112
2018-06-01T10:04:34.094Z,108
2018-06-01T10:05:33.961Z,108
2018-06-01T10:06:34.035Z,128
2018-06-01T10:07:34.131Z,108
2018-06-01T10:08:34.038Z,144
2018-06-01T10:09:34.691Z,104
2018-06-01T10:10:34.049Z,104
2018-06-01T10:11:34.054Z,104
2018-06-01T10:12:33.968Z,108
2018-06-01T10:13:34.084Z,112
2018-06-01T10:14:34.053Z,120
2018-06-01T10:15:34.102Z,136
2018-06-01T10:16:34.012Z,120
2018-06-01T10:17:34.014Z,124
2018-06-01T10:18:34.069Z,172
2018-06-01T10:19:34.038Z,132
2018-06-01T10:20:34.065Z,116
2018-06-01T10:21:34.093Z,120
2018-06-01T10:22:34.018Z,108
2018-06-01T10:23:34.082Z,92
2018-06-01T10:24:34.115Z,92
2018-06-01T10:25:34.000Z,84
2018-06-01T10:26:34.133Z,88
2018-06-01T10:27:34.049Z,132
2018-06-01T10:28:34.061Z,120
2018-06-01T10:29:34.025Z,128
2018-06-01T10:30:34.250Z,104
2018-06-01T10:31:34.028Z,88
2018-06-01T10:32:34.058Z,100
2018-06-01T10:37:51.260Z,72
2018-06-01T10:38:02.385Z,72
2018-06-01T10:39:02.382Z,72
2018-06-01T10:40:02.396Z,76
2018-06-01T10:41:02.450Z,76
2018-06-01T10:42:02.508Z,92
2018-06-01T10:43:02.438Z,116
2018-06-01T10:44:02.460Z,76
2018-06-01T10:45:02.404Z,76
2018-06-01T10:46:02.569Z,76
2018-06-01T10:47:02.466Z,76
2018-06-01T10:48:02.443Z,92
2018-06-01T10:49:02.400Z,116
2018-06-01T10:50:02.498Z,84
2018-06-01T10:51:02.468Z,92
2018-06-01T10:52:02.422Z,104
2018-06-01T10:53:02.504Z,112
2018-06-01T10:54:02.478Z,108
2018-06-01T10:55:02.428Z,112
2018-06-01T10:56:02.470Z,92
2018-06-01T10:57:02.428Z,116
2018-06-01T10:58:02.399Z,112
2018-06-01T10:59:02.436Z,112
2018-06-01T11:00:02.416Z,108
2018-06-01T11:01:02.419Z,104
2018-06-01T11:02:02.505Z,104
2018-06-01T11:03:02.520Z,60
2018-06-01T11:04:02.482Z,56
2018-06-01T11:05:02.460Z,52
2018-06-01T11:06:02.465Z,48
2018-06-01T11:07:02.518Z,48
2018-06-01T11:08:02.548Z,52
2018-06-01T11:09:02.485Z,56
2018-06-01T11:10:02.489Z,64
2018-06-01T11:11:02.516Z,112
2018-06-01T11:12:02.492Z,108
2018-06-01T11:13:02.492Z,104
2018-06-01T11:14:02.528Z,108
2018-06-01T11:15:02.540Z,104
2018-06-01T11:16:02.509Z,0
2018-06-01T11:17:02.492Z,0
2018-06-01T11:18:02.494Z,0
2018-06-01T11:19:02.663Z,0
2018-06-01T11:20:02.524Z,0
2018-06-01T11:21:02.608Z,0
2018-06-01T11:22:02.531Z,0
2018-06-01T11:23:02.508Z,0
2018-06-01T11:24:02.501Z,0
2018-06-01T11:25:02.480Z,0
2018-06-01T11:26:02.547Z,0
2018-06-01T11:27:02.697Z,0
2018-06-01T11:28:02.520Z,0
2018-06-01T11:29:02.606Z,0
2018-06-01T11:30:02.595Z,0
2018-06-01T11:31:02.600Z,0
2018-06-01T11:32:02.546Z,0
2018-06-01T11:33:02.599Z,0
2018-06-01T11:34:02.495Z,0
2018-06-01T11:35:02.540Z,0
2018-06-01T11:36:02.482Z,0
2018-06-01T11:37:02.533Z,0
2018-06-01T11:38:02.545Z,0
2018-06-01T11:39:02.542Z,0
2018-06-01T11:40:02.534Z,0
2018-06-01T11:41:02.613Z,0
2018-06-01T11:42:02.596Z,0
2018-06-01T11:43:02.560Z,0
2018-06-01T11:44:02.523Z,0
2018-06-01T11:45:03.507Z,0
2018-06-01T11:46:03.294Z,0
2018-06-01T11:47:02.597Z,0
2018-06-01T11:48:02.580Z,0
2018-06-01T11:49:02.614Z,0
2018-06-01T11:50:02.605Z,0
2018-06-01T11:51:02.645Z,0
2018-06-01T11:52:02.536Z,0
2018-06-01T11:53:02.624Z,0
2018-06-01T11:54:02.592Z,0
2018-06-01T11:55:02.545Z,0
2018-06-01T11:56:02.584Z,0
2018-06-01T11:57:02.508Z,0
2018-06-01T11:58:02.594Z,0
2018-06-01T11:59:02.571Z,0
2018-06-01T12:00:02.579Z,0
2018-06-01T12:01:02.551Z,0
2018-06-01T12:02:02.583Z,0
2018-06-01T12:03:02.575Z,0
2018-06-01T12:04:02.581Z,0
2018-06-01T12:05:02.592Z,0
2018-06-01T12:06:02.569Z,0
2018-06-01T12:07:02.545Z,0
2018-06-01T12:08:02.563Z,0
2018-06-01T12:09:02.519Z,0
2018-06-01T12:10:02.593Z,0
2018-06-01T12:11:02.717Z,0
2018-06-01T12:12:02.555Z,0
2018-06-01T12:13:02.577Z,0
2018-06-01T12:14:02.632Z,0
2018-06-01T12:15:02.599Z,0
2018-06-01T12:16:03.036Z,0
2018-06-01T12:17:03.255Z,0
2018-06-01T12:18:02.627Z,0
2018-06-01T12:19:02.655Z,0
2018-06-01T12:20:02.623Z,0
2018-06-01T12:21:02.635Z,0
2018-06-01T12:22:04.145Z,0
2018-06-01T12:23:02.649Z,0
2018-06-01T12:24:02.677Z,0
2018-06-01T12:25:02.642Z,0
2018-06-01T12:26:02.670Z,0
2018-06-01T12:27:02.783Z,0
2018-06-01T12:28:02.636Z,0
2018-06-01T12:29:02.593Z,0
2018-06-01T12:30:02.671Z,0
2018-06-01T12:31:02.591Z,0
2018-06-01T12:32:02.661Z,0
2018-06-01T12:33:02.601Z,0
2018-06-01T12:34:02.656Z,0
2018-06-01T12:35:02.635Z,0
2018-06-01T12:36:02.655Z,0
2018-06-01T12:37:02.660Z,0
2018-06-01T12:38:02.607Z,0
2018-06-01T12:39:02.571Z,0
2018-06-01T12:40:02.741Z,0
2018-06-01T12:41:02.700Z,0
2018-06-01T12:42:02.672Z,0
2018-06-01T12:43:02.700Z,0
2018-06-01T12:44:02.663Z,0
2018-06-01T12:45:02.619Z,0
2018-06-01T12:46:02.650Z,0
2018-06-01T12:47:02.668Z,0
2018-06-01T12:48:02.665Z,0
2018-06-01T12:49:02.740Z,0
2018-06-01T12:50:02.744Z,0
2018-06-01T12:51:02.689Z,0
2018-06-01T12:52:02.661Z,0
2018-06-01T12:53:02.703Z,0
2018-06-01T12:54:03.393Z,0
2018-06-01T12:55:02.642Z,0
2018-06-01T12:56:02.659Z,0
2018-06-01T12:57:02.793Z,0
2018-06-01T12:58:02.691Z,0
2018-06-01T12:59:02.713Z,0
2018-06-01T13:00:02.710Z,0
2018-06-01T13:01:02.676Z,0
2018-06-01T13:02:02.760Z,0
2018-06-01T13:03:02.748Z,0
2018-06-01T13:04:02.679Z,0
2018-06-01T13:05:02.698Z,0
2018-06-01T13:06:02.668Z,0
2018-06-01T13:07:02.715Z,0
2018-06-01T13:08:02.739Z,0
2018-06-01T13:09:02.812Z,0
2018-06-01T13:10:02.726Z,0
2018-06-01T13:11:02.740Z,0
2018-06-01T13:12:02.686Z,0
2018-06-01T13:13:02.712Z,0
2018-06-01T13:14:02.716Z,0
2018-06-01T13:15:02.724Z,0
2018-06-01T13:16:02.731Z,0
2018-06-01T13:17:02.735Z,0
2018-06-01T13:18:02.730Z,0
2018-06-01T13:19:02.713Z,0
2018-06-01T13:20:02.711Z,0
2018-06-01T13:21:02.846Z,0
2018-06-01T13:22:02.757Z,0
2018-06-01T13:23:02.722Z,0
2018-06-01T13:24:02.763Z,0
2018-06-01T13:25:02.803Z,0
2018-06-01T13:26:02.695Z,0
2018-06-01T13:27:02.744Z,0
2018-06-01T13:28:02.712Z,0
2018-06-01T13:29:02.777Z,0
2018-06-01T13:30:02.812Z,0
2018-06-01T13:31:02.770Z,0
2018-06-01T13:32:02.757Z,0
2018-06-01T13:33:02.752Z,0
2018-06-01T13:34:02.723Z,0
2018-06-01T13:35:02.745Z,0
2018-06-01T13:36:02.723Z,0
2018-06-01T13:37:02.781Z,0
2018-06-01T13:38:02.727Z,0
2018-06-01T13:39:02.758Z,0
2018-06-01T13:40:02.801Z,0
2018-06-01T13:41:02.776Z,0
2018-06-01T13:42:02.832Z,0
2018-06-01T13:43:03.908Z,0
2018-06-01T13:44:02.790Z,0
2018-06-01T13:45:02.792Z,0
2018-06-01T13:46:02.736Z,0
2018-06-01T13:47:02.740Z,0
2018-06-01T13:48:02.818Z,0
2018-06-01T13:49:02.822Z,0
2018-06-01T13:50:02.861Z,0
2018-06-01T13:51:02.829Z,0
2018-06-01T13:52:02.757Z,0
2018-06-01T13:53:02.803Z,0
2018-06-01T13:54:02.843Z,0
2018-06-01T13:55:02.757Z,0
2018-06-01T13:56:02.863Z,0
2018-06-01T13:57:03.460Z,0
2018-06-01T13:58:02.777Z,0
2018-06-01T13:59:02.828Z,0
2018-06-01T14:00:02.834Z,0
2018-06-01T14:01:02.836Z,0
2018-06-01T14:02:02.802Z,0
2018-06-01T14:03:02.783Z,0
2018-06-01T14:04:03.775Z,0
2018-06-01T14:05:02.897Z,0
2018-06-01T14:06:02.798Z,0
2018-06-01T14:07:02.801Z,0
2018-06-01T14:08:03.357Z,0
2018-06-01T14:09:02.786Z,0
2018-06-01T14:10:02.902Z,0
2018-06-01T14:11:03.084Z,0
2018-06-01T14:12:02.809Z,0
2018-06-01T14:13:02.782Z,0
2018-06-01T14:14:03.496Z,0
2018-06-01T14:15:02.810Z,0
2018-06-01T14:16:02.783Z,0
2018-06-01T14:17:03.476Z,0
2018-06-01T14:18:02.849Z,0
2018-06-01T14:19:03.849Z,0
2018-06-01T14:20:02.828Z,0
2018-06-01T14:21:02.889Z,0
2018-06-01T14:22:02.873Z,0
2018-06-01T14:23:03.742Z,0
2018-06-01T14:24:02.870Z,0
2018-06-01T14:25:02.873Z,0
2018-06-01T14:26:02.802Z,0
2018-06-01T14:27:02.820Z,0
2018-06-01T14:28:02.851Z,0
2018-06-01T14:29:02.832Z,0
2018-06-01T14:30:02.882Z,0
2018-06-01T14:31:02.909Z,0
2018-06-01T14:32:02.829Z,0
2018-06-01T14:33:02.800Z,0
2018-06-01T14:34:02.887Z,0
2018-06-01T14:35:02.980Z,0
2018-06-01T14:36:02.863Z,0
2018-06-01T14:37:02.952Z,0
2018-06-01T14:39:07.505Z,0
2018-06-01T14:39:18.694Z,0
2018-06-01T14:40:18.811Z,0
2018-06-01T14:41:18.607Z,0
2018-06-01T14:42:18.688Z,0
2018-06-01T14:43:18.725Z,0
2018-06-01T14:44:18.743Z,0
2018-06-01T14:45:18.699Z,0
2018-06-01T14:46:18.716Z,0
2018-06-01T14:47:18.829Z,0
2018-06-01T14:48:18.674Z,0
2018-06-01T14:49:18.778Z,0
2018-06-01T14:50:18.683Z,0
2018-06-01T14:51:18.705Z,0
2018-06-01T14:52:18.732Z,0
2018-06-01T14:53:18.713Z,0
2018-06-01T14:54:18.744Z,0
2018-06-01T14:55:18.781Z,0